sensor_id;sensor_type;location;lat;lon;timestamp;P1;durP1;ratioP1;P2;durP2;ratioP2
11203;SDS011;5659;49.408;11.116;2023-05-17T00:02:03;6.77;;;2.00;;
11203;SDS011;5659;49.408;11.116;2023-05-17T00:04:29;3.83;;;1.80;;
11203;SDS011;5659;49.408;11.116;2023-05-17T00:06:55;4.47;;;1.90;;
11203;SDS011;5659;49.408;11.116;2023-05-17T00:09:21;4.30;;;2.13;;
11203;SDS011;5659;49.408;11.116;2023-05-17T00:11:47;6.73;;;2.10;;
11203;SDS011;5659;49.408;11.116;2023-05-17T00:14:13;7.27;;;2.23;;
11203;SDS011;5659;49.408;11.116;2023-05-17T00:16:39;8.83;;;2.23;;
11203;SDS011;5659;49.408;11.116;2023-05-17T00:19:04;6.47;;;2.00;;
11203;SDS011;5659;49.408;11.116;2023-05-17T00:21:30;6.27;;;2.17;;
11203;SDS011;5659;49.408;11.116;2023-05-17T00:23:56;6.73;;;1.97;;
11203;SDS011;5659;49.408;11.116;2023-05-17T00:26:22;7.23;;;1.97;;
11203;SDS011;5659;49.408;11.116;2023-05-17T00:28:48;8.87;;;1.87;;
11203;SDS011;5659;49.408;11.116;2023-05-17T00:31:14;4.63;;;2.13;;
11203;SDS011;5659;49.408;11.116;2023-05-17T00:33:40;2.83;;;1.90;;
11203;SDS011;5659;49.408;11.116;2023-05-17T00:36:06;9.10;;;2.10;;
11203;SDS011;5659;49.408;11.116;2023-05-17T00:38:32;6.57;;;2.50;;
11203;SDS011;5659;49.408;11.116;2023-05-17T00:40:58;4.83;;;1.90;;
11203;SDS011;5659;49.408;11.116;2023-05-17T00:43:24;5.97;;;2.17;;
11203;SDS011;5659;49.408;11.116;2023-05-17T00:45:50;7.07;;;2.30;;
11203;SDS011;5659;49.408;11.116;2023-05-17T00:48:17;6.37;;;2.07;;
11203;SDS011;5659;49.408;11.116;2023-05-17T00:50:45;6.90;;;2.00;;
11203;SDS011;5659;49.408;11.116;2023-05-17T00:53:11;4.90;;;1.97;;
11203;SDS011;5659;49.408;11.116;2023-05-17T00:55:41;5.53;;;1.87;;
11203;SDS011;5659;49.408;11.116;2023-05-17T00:58:07;5.23;;;1.97;;
11203;SDS011;5659;49.408;11.116;2023-05-17T01:00:33;7.93;;;2.07;;
11203;SDS011;5659;49.408;11.116;2023-05-17T01:02:59;6.63;;;2.00;;
11203;SDS011;5659;49.408;11.116;2023-05-17T01:05:25;5.07;;;2.20;;
11203;SDS011;5659;49.408;11.116;2023-05-17T01:07:52;7.53;;;2.17;;
11203;SDS011;5659;49.408;11.116;2023-05-17T01:10:18;4.57;;;1.97;;
11203;SDS011;5659;49.408;11.116;2023-05-17T01:12:57;8.87;;;2.17;;
11203;SDS011;5659;49.408;11.116;2023-05-17T01:15:27;2.37;;;1.73;;
11203;SDS011;5659;49.408;11.116;2023-05-17T01:20:35;5.27;;;2.10;;
11203;SDS011;5659;49.408;11.116;2023-05-17T01:28:28;6.03;;;1.80;;
11203;SDS011;5659;49.408;11.116;2023-05-17T01:30:55;7.10;;;2.30;;
11203;SDS011;5659;49.408;11.116;2023-05-17T01:33:22;5.67;;;2.20;;
11203;SDS011;5659;49.408;11.116;2023-05-17T01:35:48;5.90;;;2.20;;
11203;SDS011;5659;49.408;11.116;2023-05-17T01:38:14;9.00;;;2.00;;
11203;SDS011;5659;49.408;11.116;2023-05-17T01:40:42;7.00;;;1.97;;
11203;SDS011;5659;49.408;11.116;2023-05-17T01:43:14;7.23;;;2.00;;
11203;SDS011;5659;49.408;11.116;2023-05-17T01:45:46;6.70;;;2.20;;
11203;SDS011;5659;49.408;11.116;2023-05-17T01:48:19;7.60;;;2.10;;
11203;SDS011;5659;49.408;11.116;2023-05-17T01:50:46;9.40;;;2.27;;
11203;SDS011;5659;49.408;11.116;2023-05-17T01:53:19;7.10;;;2.50;;
11203;SDS011;5659;49.408;11.116;2023-05-17T01:55:49;5.83;;;2.10;;
11203;SDS011;5659;49.408;11.116;2023-05-17T01:58:17;6.80;;;2.30;;
11203;SDS011;5659;49.408;11.116;2023-05-17T02:00:45;8.87;;;1.87;;
11203;SDS011;5659;49.408;11.116;2023-05-17T02:03:18;14.77;;;2.57;;
11203;SDS011;5659;49.408;11.116;2023-05-17T02:05:44;13.10;;;2.60;;
11203;SDS011;5659;49.408;11.116;2023-05-17T02:08:10;4.17;;;2.00;;
11203;SDS011;5659;49.408;11.116;2023-05-17T02:10:37;9.03;;;3.17;;
11203;SDS011;5659;49.408;11.116;2023-05-17T02:13:03;8.73;;;2.40;;
11203;SDS011;5659;49.408;11.116;2023-05-17T02:15:29;9.13;;;2.43;;
11203;SDS011;5659;49.408;11.116;2023-05-17T02:17:55;7.33;;;2.43;;
11203;SDS011;5659;49.408;11.116;2023-05-17T02:20:21;8.30;;;2.20;;
11203;SDS011;5659;49.408;11.116;2023-05-17T02:22:47;6.47;;;2.30;;
11203;SDS011;5659;49.408;11.116;2023-05-17T02:25:13;5.50;;;1.93;;
11203;SDS011;5659;49.408;11.116;2023-05-17T02:27:39;6.13;;;2.13;;
11203;SDS011;5659;49.408;11.116;2023-05-17T02:30:05;5.67;;;2.10;;
11203;SDS011;5659;49.408;11.116;2023-05-17T02:32:31;5.97;;;2.23;;
11203;SDS011;5659;49.408;11.116;2023-05-17T02:34:57;10.93;;;2.37;;
11203;SDS011;5659;49.408;11.116;2023-05-17T02:37:24;6.43;;;2.40;;
11203;SDS011;5659;49.408;11.116;2023-05-17T02:39:50;3.97;;;2.17;;
11203;SDS011;5659;49.408;11.116;2023-05-17T02:42:17;5.50;;;1.90;;
11203;SDS011;5659;49.408;11.116;2023-05-17T02:44:43;5.03;;;2.20;;
11203;SDS011;5659;49.408;11.116;2023-05-17T02:47:09;5.77;;;2.30;;
11203;SDS011;5659;49.408;11.116;2023-05-17T02:49:35;8.60;;;2.03;;
11203;SDS011;5659;49.408;11.116;2023-05-17T02:52:00;6.57;;;2.13;;
11203;SDS011;5659;49.408;11.116;2023-05-17T02:54:27;4.37;;;1.80;;
11203;SDS011;5659;49.408;11.116;2023-05-17T02:56:53;7.57;;;2.23;;
11203;SDS011;5659;49.408;11.116;2023-05-17T02:59:19;11.23;;;2.80;;
11203;SDS011;5659;49.408;11.116;2023-05-17T03:01:46;7.13;;;2.23;;
11203;SDS011;5659;49.408;11.116;2023-05-17T03:04:13;11.17;;;2.20;;
11203;SDS011;5659;49.408;11.116;2023-05-17T03:06:39;7.17;;;2.27;;
11203;SDS011;5659;49.408;11.116;2023-05-17T03:09:05;7.43;;;2.17;;
11203;SDS011;5659;49.408;11.116;2023-05-17T03:11:31;5.63;;;2.37;;
11203;SDS011;5659;49.408;11.116;2023-05-17T03:13:57;6.40;;;3.30;;
11203;SDS011;5659;49.408;11.116;2023-05-17T03:16:23;7.40;;;2.30;;
11203;SDS011;5659;49.408;11.116;2023-05-17T03:18:49;5.13;;;1.97;;
11203;SDS011;5659;49.408;11.116;2023-05-17T03:21:15;7.47;;;2.50;;
11203;SDS011;5659;49.408;11.116;2023-05-17T03:23:41;4.33;;;2.10;;
11203;SDS011;5659;49.408;11.116;2023-05-17T03:26:07;5.90;;;2.40;;
11203;SDS011;5659;49.408;11.116;2023-05-17T03:28:33;5.73;;;2.20;;
11203;SDS011;5659;49.408;11.116;2023-05-17T03:30:59;10.37;;;2.70;;
11203;SDS011;5659;49.408;11.116;2023-05-17T03:33:25;9.23;;;2.53;;
11203;SDS011;5659;49.408;11.116;2023-05-17T03:35:51;7.33;;;2.67;;
11203;SDS011;5659;49.408;11.116;2023-05-17T03:38:17;7.07;;;2.57;;
11203;SDS011;5659;49.408;11.116;2023-05-17T03:40:43;7.00;;;2.20;;
11203;SDS011;5659;49.408;11.116;2023-05-17T03:43:08;6.90;;;2.27;;
11203;SDS011;5659;49.408;11.116;2023-05-17T03:45:34;10.00;;;2.50;;
11203;SDS011;5659;49.408;11.116;2023-05-17T03:48:00;4.83;;;2.17;;
11203;SDS011;5659;49.408;11.116;2023-05-17T03:50:26;8.27;;;2.80;;
11203;SDS011;5659;49.408;11.116;2023-05-17T03:52:53;10.77;;;2.93;;
11203;SDS011;5659;49.408;11.116;2023-05-17T03:55:19;7.93;;;2.27;;
11203;SDS011;5659;49.408;11.116;2023-05-17T03:57:45;11.87;;;2.93;;
11203;SDS011;5659;49.408;11.116;2023-05-17T04:00:11;11.23;;;3.17;;
11203;SDS011;5659;49.408;11.116;2023-05-17T04:02:37;4.73;;;2.60;;
11203;SDS011;5659;49.408;11.116;2023-05-17T04:05:03;7.17;;;2.43;;
11203;SDS011;5659;49.408;11.116;2023-05-17T04:07:29;6.77;;;2.47;;
11203;SDS011;5659;49.408;11.116;2023-05-17T04:09:56;6.63;;;2.70;;
11203;SDS011;5659;49.408;11.116;2023-05-17T04:12:27;7.70;;;2.63;;
11203;SDS011;5659;49.408;11.116;2023-05-17T04:14:52;10.97;;;2.47;;
11203;SDS011;5659;49.408;11.116;2023-05-17T04:17:18;10.93;;;2.40;;
11203;SDS011;5659;49.408;11.116;2023-05-17T04:19:44;7.63;;;2.07;;
11203;SDS011;5659;49.408;11.116;2023-05-17T04:22:10;6.30;;;2.37;;
11203;SDS011;5659;49.408;11.116;2023-05-17T04:24:36;5.70;;;2.23;;
11203;SDS011;5659;49.408;11.116;2023-05-17T04:27:02;6.40;;;2.53;;
11203;SDS011;5659;49.408;11.116;2023-05-17T04:29:28;5.00;;;2.33;;
11203;SDS011;5659;49.408;11.116;2023-05-17T04:31:54;6.73;;;2.40;;
11203;SDS011;5659;49.408;11.116;2023-05-17T04:34:20;4.87;;;2.40;;
11203;SDS011;5659;49.408;11.116;2023-05-17T04:36:47;5.70;;;2.17;;
11203;SDS011;5659;49.408;11.116;2023-05-17T04:39:13;8.57;;;2.40;;
11203;SDS011;5659;49.408;11.116;2023-05-17T04:41:39;5.80;;;2.37;;
11203;SDS011;5659;49.408;11.116;2023-05-17T04:44:05;7.40;;;2.33;;
11203;SDS011;5659;49.408;11.116;2023-05-17T04:46:32;5.63;;;2.30;;
11203;SDS011;5659;49.408;11.116;2023-05-17T04:48:58;7.40;;;2.10;;
11203;SDS011;5659;49.408;11.116;2023-05-17T04:51:24;9.73;;;2.50;;
11203;SDS011;5659;49.408;11.116;2023-05-17T04:53:51;6.60;;;2.43;;
11203;SDS011;5659;49.408;11.116;2023-05-17T04:56:17;4.93;;;2.10;;
11203;SDS011;5659;49.408;11.116;2023-05-17T04:58:43;4.83;;;2.53;;
11203;SDS011;5659;49.408;11.116;2023-05-17T05:01:09;9.37;;;2.53;;
11203;SDS011;5659;49.408;11.116;2023-05-17T05:03:35;6.03;;;2.30;;
11203;SDS011;5659;49.408;11.116;2023-05-17T05:06:02;3.67;;;2.07;;
11203;SDS011;5659;49.408;11.116;2023-05-17T05:08:28;6.90;;;2.40;;
11203;SDS011;5659;49.408;11.116;2023-05-17T05:10:54;7.30;;;2.60;;
11203;SDS011;5659;49.408;11.116;2023-05-17T05:13:23;4.37;;;2.20;;
11203;SDS011;5659;49.408;11.116;2023-05-17T05:15:49;11.57;;;2.30;;
11203;SDS011;5659;49.408;11.116;2023-05-17T05:18:15;7.83;;;2.37;;
11203;SDS011;5659;49.408;11.116;2023-05-17T05:20:41;11.80;;;2.47;;
11203;SDS011;5659;49.408;11.116;2023-05-17T05:23:08;7.27;;;2.53;;
11203;SDS011;5659;49.408;11.116;2023-05-17T05:25:33;9.37;;;2.37;;
11203;SDS011;5659;49.408;11.116;2023-05-17T05:28:00;8.53;;;2.80;;
11203;SDS011;5659;49.408;11.116;2023-05-17T05:30:26;7.37;;;2.20;;
11203;SDS011;5659;49.408;11.116;2023-05-17T05:32:52;9.07;;;2.53;;
11203;SDS011;5659;49.408;11.116;2023-05-17T05:35:18;9.87;;;2.53;;
11203;SDS011;5659;49.408;11.116;2023-05-17T05:37:44;9.57;;;2.70;;
11203;SDS011;5659;49.408;11.116;2023-05-17T05:40:10;10.27;;;3.10;;
11203;SDS011;5659;49.408;11.116;2023-05-17T05:42:36;14.10;;;2.70;;
11203;SDS011;5659;49.408;11.116;2023-05-17T05:45:02;12.43;;;2.60;;
11203;SDS011;5659;49.408;11.116;2023-05-17T05:47:28;10.23;;;2.67;;
11203;SDS011;5659;49.408;11.116;2023-05-17T05:49:54;6.40;;;2.53;;
11203;SDS011;5659;49.408;11.116;2023-05-17T05:52:21;7.83;;;2.73;;
11203;SDS011;5659;49.408;11.116;2023-05-17T05:54:46;6.80;;;2.50;;
11203;SDS011;5659;49.408;11.116;2023-05-17T05:57:12;6.73;;;2.70;;
11203;SDS011;5659;49.408;11.116;2023-05-17T05:59:38;8.87;;;2.30;;
11203;SDS011;5659;49.408;11.116;2023-05-17T06:02:04;8.87;;;2.70;;
11203;SDS011;5659;49.408;11.116;2023-05-17T06:04:31;11.87;;;2.90;;
11203;SDS011;5659;49.408;11.116;2023-05-17T06:06:57;9.80;;;3.43;;
11203;SDS011;5659;49.408;11.116;2023-05-17T06:09:23;11.67;;;2.60;;
11203;SDS011;5659;49.408;11.116;2023-05-17T06:11:50;8.73;;;2.80;;
11203;SDS011;5659;49.408;11.116;2023-05-17T06:14:17;9.07;;;2.60;;
11203;SDS011;5659;49.408;11.116;2023-05-17T06:16:43;12.07;;;2.70;;
11203;SDS011;5659;49.408;11.116;2023-05-17T06:19:09;7.47;;;3.10;;
11203;SDS011;5659;49.408;11.116;2023-05-17T06:21:35;5.53;;;2.87;;
11203;SDS011;5659;49.408;11.116;2023-05-17T06:24:01;9.67;;;2.70;;
11203;SDS011;5659;49.408;11.116;2023-05-17T06:26:28;7.97;;;2.90;;
11203;SDS011;5659;49.408;11.116;2023-05-17T06:28:55;7.30;;;3.00;;
11203;SDS011;5659;49.408;11.116;2023-05-17T06:31:21;9.93;;;3.07;;
11203;SDS011;5659;49.408;11.116;2023-05-17T06:33:47;11.37;;;3.20;;
11203;SDS011;5659;49.408;11.116;2023-05-17T06:36:13;5.87;;;2.67;;
11203;SDS011;5659;49.408;11.116;2023-05-17T06:38:39;9.17;;;3.20;;
11203;SDS011;5659;49.408;11.116;2023-05-17T06:41:05;9.77;;;3.00;;
11203;SDS011;5659;49.408;11.116;2023-05-17T06:43:31;7.57;;;2.97;;
11203;SDS011;5659;49.408;11.116;2023-05-17T06:45:57;13.27;;;3.23;;
11203;SDS011;5659;49.408;11.116;2023-05-17T06:48:23;10.40;;;3.00;;
11203;SDS011;5659;49.408;11.116;2023-05-17T06:50:49;10.90;;;3.23;;
11203;SDS011;5659;49.408;11.116;2023-05-17T06:53:15;17.40;;;3.10;;
11203;SDS011;5659;49.408;11.116;2023-05-17T06:55:41;12.17;;;3.30;;
11203;SDS011;5659;49.408;11.116;2023-05-17T06:58:07;10.17;;;3.40;;
11203;SDS011;5659;49.408;11.116;2023-05-17T07:00:33;12.50;;;3.13;;
11203;SDS011;5659;49.408;11.116;2023-05-17T07:03:00;14.70;;;3.40;;
11203;SDS011;5659;49.408;11.116;2023-05-17T07:05:25;10.13;;;3.23;;
11203;SDS011;5659;49.408;11.116;2023-05-17T07:07:54;7.80;;;2.97;;
11203;SDS011;5659;49.408;11.116;2023-05-17T07:10:20;11.30;;;3.40;;
11203;SDS011;5659;49.408;11.116;2023-05-17T07:12:46;7.93;;;3.63;;
11203;SDS011;5659;49.408;11.116;2023-05-17T07:15:12;8.27;;;3.20;;
11203;SDS011;5659;49.408;11.116;2023-05-17T07:17:38;6.87;;;2.90;;
11203;SDS011;5659;49.408;11.116;2023-05-17T07:20:05;14.98;;;3.65;;
11203;SDS011;5659;49.408;11.116;2023-05-17T07:22:31;9.10;;;3.40;;
11203;SDS011;5659;49.408;11.116;2023-05-17T07:24:57;7.90;;;3.08;;
11203;SDS011;5659;49.408;11.116;2023-05-17T07:27:22;9.27;;;3.35;;
11203;SDS011;5659;49.408;11.116;2023-05-17T07:29:48;12.05;;;3.72;;
11203;SDS011;5659;49.408;11.116;2023-05-17T07:32:15;7.32;;;3.17;;
11203;SDS011;5659;49.408;11.116;2023-05-17T07:34:42;7.82;;;3.47;;
11203;SDS011;5659;49.408;11.116;2023-05-17T07:37:07;8.70;;;3.35;;
11203;SDS011;5659;49.408;11.116;2023-05-17T07:39:33;9.55;;;3.55;;
11203;SDS011;5659;49.408;11.116;2023-05-17T07:41:59;8.43;;;2.97;;
11203;SDS011;5659;49.408;11.116;2023-05-17T07:44:25;6.50;;;3.40;;
11203;SDS011;5659;49.408;11.116;2023-05-17T07:46:51;9.20;;;3.42;;
11203;SDS011;5659;49.408;11.116;2023-05-17T07:49:17;10.43;;;2.97;;
11203;SDS011;5659;49.408;11.116;2023-05-17T07:51:43;8.20;;;3.13;;
11203;SDS011;5659;49.408;11.116;2023-05-17T07:54:11;9.98;;;3.75;;
11203;SDS011;5659;49.408;11.116;2023-05-17T07:56:37;8.00;;;3.50;;
11203;SDS011;5659;49.408;11.116;2023-05-17T07:59:03;8.70;;;3.53;;
11203;SDS011;5659;49.408;11.116;2023-05-17T08:01:29;7.30;;;3.72;;
11203;SDS011;5659;49.408;11.116;2023-05-17T08:03:55;6.95;;;3.50;;
11203;SDS011;5659;49.408;11.116;2023-05-17T08:06:21;7.90;;;3.30;;
11203;SDS011;5659;49.408;11.116;2023-05-17T08:08:47;8.23;;;3.47;;
11203;SDS011;5659;49.408;11.116;2023-05-17T08:11:13;10.88;;;3.50;;
11203;SDS011;5659;49.408;11.116;2023-05-17T08:13:39;6.65;;;3.20;;
11203;SDS011;5659;49.408;11.116;2023-05-17T08:16:05;13.20;;;3.40;;
11203;SDS011;5659;49.408;11.116;2023-05-17T08:18:33;6.38;;;3.33;;
11203;SDS011;5659;49.408;11.116;2023-05-17T08:20:59;7.72;;;3.33;;
11203;SDS011;5659;49.408;11.116;2023-05-17T08:23:25;7.40;;;3.45;;
11203;SDS011;5659;49.408;11.116;2023-05-17T08:25:51;10.27;;;3.92;;
11203;SDS011;5659;49.408;11.116;2023-05-17T08:28:17;10.52;;;3.63;;
11203;SDS011;5659;49.408;11.116;2023-05-17T08:30:43;11.48;;;3.30;;
11203;SDS011;5659;49.408;11.116;2023-05-17T08:33:09;6.57;;;3.70;;
11203;SDS011;5659;49.408;11.116;2023-05-17T08:35:36;9.85;;;3.75;;
11203;SDS011;5659;49.408;11.116;2023-05-17T08:38:02;8.43;;;4.07;;
11203;SDS011;5659;49.408;11.116;2023-05-17T08:40:28;9.60;;;3.47;;
11203;SDS011;5659;49.408;11.116;2023-05-17T08:42:54;12.32;;;3.90;;
11203;SDS011;5659;49.408;11.116;2023-05-17T08:45:20;9.32;;;3.95;;
11203;SDS011;5659;49.408;11.116;2023-05-17T08:47:48;10.43;;;4.28;;
11203;SDS011;5659;49.408;11.116;2023-05-17T08:50:15;7.30;;;3.38;;
11203;SDS011;5659;49.408;11.116;2023-05-17T08:52:43;6.82;;;3.63;;
11203;SDS011;5659;49.408;11.116;2023-05-17T08:55:09;13.30;;;3.88;;
11203;SDS011;5659;49.408;11.116;2023-05-17T08:57:36;8.80;;;3.33;;
11203;SDS011;5659;49.408;11.116;2023-05-17T09:00:04;10.18;;;3.78;;
11203;SDS011;5659;49.408;11.116;2023-05-17T09:02:37;7.35;;;3.90;;
11203;SDS011;5659;49.408;11.116;2023-05-17T09:05:04;8.05;;;3.78;;
11203;SDS011;5659;49.408;11.116;2023-05-17T09:07:31;11.23;;;4.57;;
11203;SDS011;5659;49.408;11.116;2023-05-17T09:09:57;8.60;;;4.40;;
11203;SDS011;5659;49.408;11.116;2023-05-17T09:12:23;8.55;;;3.72;;
11203;SDS011;5659;49.408;11.116;2023-05-17T09:14:50;13.13;;;3.80;;
11203;SDS011;5659;49.408;11.116;2023-05-17T09:17:19;9.75;;;3.75;;
11203;SDS011;5659;49.408;11.116;2023-05-17T09:19:46;8.45;;;3.72;;
11203;SDS011;5659;49.408;11.116;2023-05-17T09:22:16;10.02;;;4.00;;
11203;SDS011;5659;49.408;11.116;2023-05-17T09:24:42;11.75;;;4.50;;
11203;SDS011;5659;49.408;11.116;2023-05-17T09:27:13;13.07;;;3.92;;
11203;SDS011;5659;49.408;11.116;2023-05-17T09:29:39;7.25;;;3.60;;
11203;SDS011;5659;49.408;11.116;2023-05-17T09:32:12;7.47;;;3.45;;
11203;SDS011;5659;49.408;11.116;2023-05-17T09:34:39;10.57;;;4.38;;
11203;SDS011;5659;49.408;11.116;2023-05-17T09:37:05;6.68;;;3.58;;
11203;SDS011;5659;49.408;11.116;2023-05-17T09:39:36;6.90;;;3.67;;
11203;SDS011;5659;49.408;11.116;2023-05-17T09:42:02;12.00;;;4.57;;
11203;SDS011;5659;49.408;11.116;2023-05-17T09:44:28;8.63;;;3.63;;
11203;SDS011;5659;49.408;11.116;2023-05-17T09:46:56;12.63;;;4.28;;
11203;SDS011;5659;49.408;11.116;2023-05-17T09:49:25;9.13;;;3.72;;
11203;SDS011;5659;49.408;11.116;2023-05-17T09:51:53;10.10;;;3.63;;
11203;SDS011;5659;49.408;11.116;2023-05-17T09:54:19;12.75;;;4.10;;
11203;SDS011;5659;49.408;11.116;2023-05-17T09:56:51;12.80;;;4.53;;
11203;SDS011;5659;49.408;11.116;2023-05-17T09:59:18;5.82;;;3.75;;
11203;SDS011;5659;49.408;11.116;2023-05-17T10:01:44;10.68;;;4.03;;
11203;SDS011;5659;49.408;11.116;2023-05-17T10:04:14;10.25;;;4.05;;
11203;SDS011;5659;49.408;11.116;2023-05-17T10:06:44;14.07;;;4.20;;
11203;SDS011;5659;49.408;11.116;2023-05-17T10:09:13;6.78;;;3.55;;
11203;SDS011;5659;49.408;11.116;2023-05-17T10:11:40;6.72;;;3.85;;
11203;SDS011;5659;49.408;11.116;2023-05-17T10:16:46;6.15;;;3.47;;
11203;SDS011;5659;49.408;11.116;2023-05-17T10:19:13;9.65;;;3.67;;
11203;SDS011;5659;49.408;11.116;2023-05-17T10:21:40;8.32;;;3.50;;
11203;SDS011;5659;49.408;11.116;2023-05-17T10:24:07;6.50;;;3.75;;
11203;SDS011;5659;49.408;11.116;2023-05-17T10:26:33;8.30;;;3.30;;
11203;SDS011;5659;49.408;11.116;2023-05-17T10:29:00;6.32;;;3.38;;
11203;SDS011;5659;49.408;11.116;2023-05-17T10:31:28;11.25;;;3.80;;
11203;SDS011;5659;49.408;11.116;2023-05-17T10:33:54;8.65;;;3.70;;
11203;SDS011;5659;49.408;11.116;2023-05-17T10:36:21;8.07;;;3.40;;
11203;SDS011;5659;49.408;11.116;2023-05-17T10:38:48;8.77;;;3.63;;
11203;SDS011;5659;49.408;11.116;2023-05-17T10:41:14;10.45;;;3.95;;
11203;SDS011;5659;49.408;11.116;2023-05-17T10:43:42;10.88;;;3.67;;
11203;SDS011;5659;49.408;11.116;2023-05-17T10:46:14;8.02;;;3.85;;
11203;SDS011;5659;49.408;11.116;2023-05-17T10:48:40;10.45;;;3.80;;
11203;SDS011;5659;49.408;11.116;2023-05-17T10:51:06;7.20;;;3.90;;
11203;SDS011;5659;49.408;11.116;2023-05-17T10:53:34;9.43;;;3.63;;
11203;SDS011;5659;49.408;11.116;2023-05-17T10:56:20;9.38;;;3.67;;
11203;SDS011;5659;49.408;11.116;2023-05-17T10:58:47;9.55;;;3.45;;
11203;SDS011;5659;49.408;11.116;2023-05-17T11:01:32;10.35;;;3.65;;
11203;SDS011;5659;49.408;11.116;2023-05-17T11:04:11;9.57;;;3.20;;
11203;SDS011;5659;49.408;11.116;2023-05-17T11:06:44;7.95;;;3.70;;
11203;SDS011;5659;49.408;11.116;2023-05-17T11:09:13;13.15;;;4.72;;
11203;SDS011;5659;49.408;11.116;2023-05-17T11:14:25;8.70;;;3.38;;
11203;SDS011;5659;49.408;11.116;2023-05-17T11:16:51;11.32;;;4.03;;
11203;SDS011;5659;49.408;11.116;2023-05-17T11:19:21;11.60;;;3.90;;
11203;SDS011;5659;49.408;11.116;2023-05-17T11:21:47;7.53;;;4.13;;
11203;SDS011;5659;49.408;11.116;2023-05-17T11:24:24;9.48;;;3.97;;
11203;SDS011;5659;49.408;11.116;2023-05-17T11:26:51;9.23;;;4.32;;
11203;SDS011;5659;49.408;11.116;2023-05-17T11:29:20;6.18;;;3.25;;
11203;SDS011;5659;49.408;11.116;2023-05-17T11:31:49;7.57;;;3.70;;
11203;SDS011;5659;49.408;11.116;2023-05-17T11:34:16;7.85;;;3.55;;
11203;SDS011;5659;49.408;11.116;2023-05-17T11:36:52;7.75;;;3.20;;
11203;SDS011;5659;49.408;11.116;2023-05-17T11:39:20;10.25;;;3.65;;
11203;SDS011;5659;49.408;11.116;2023-05-17T11:41:50;9.05;;;4.22;;
11203;SDS011;5659;49.408;11.116;2023-05-17T11:46:58;12.20;;;4.10;;
11203;SDS011;5659;49.408;11.116;2023-05-17T11:49:25;6.55;;;3.35;;
11203;SDS011;5659;49.408;11.116;2023-05-17T11:51:51;6.40;;;3.60;;
11203;SDS011;5659;49.408;11.116;2023-05-17T11:54:20;7.25;;;3.58;;
11203;SDS011;5659;49.408;11.116;2023-05-17T11:56:46;19.65;;;3.67;;
11203;SDS011;5659;49.408;11.116;2023-05-17T11:59:20;8.65;;;3.85;;
11203;SDS011;5659;49.408;11.116;2023-05-17T12:01:47;11.00;;;4.38;;
11203;SDS011;5659;49.408;11.116;2023-05-17T12:04:21;7.40;;;3.20;;
11203;SDS011;5659;49.408;11.116;2023-05-17T12:06:48;11.10;;;3.47;;
11203;SDS011;5659;49.408;11.116;2023-05-17T12:09:14;8.85;;;3.50;;
11203;SDS011;5659;49.408;11.116;2023-05-17T12:11:41;12.77;;;4.35;;
11203;SDS011;5659;49.408;11.116;2023-05-17T12:14:08;11.48;;;3.85;;
11203;SDS011;5659;49.408;11.116;2023-05-17T12:16:37;14.27;;;3.92;;
11203;SDS011;5659;49.408;11.116;2023-05-17T12:19:06;10.43;;;3.53;;
11203;SDS011;5659;49.408;11.116;2023-05-17T12:21:42;11.63;;;3.85;;
11203;SDS011;5659;49.408;11.116;2023-05-17T12:24:08;8.57;;;3.17;;
11203;SDS011;5659;49.408;11.116;2023-05-17T12:26:34;6.97;;;3.65;;
11203;SDS011;5659;49.408;11.116;2023-05-17T12:29:07;7.45;;;3.08;;
11203;SDS011;5659;49.408;11.116;2023-05-17T12:31:35;10.35;;;3.88;;
11203;SDS011;5659;49.408;11.116;2023-05-17T12:34:05;8.63;;;3.22;;
11203;SDS011;5659;49.408;11.116;2023-05-17T12:36:36;7.78;;;3.90;;
11203;SDS011;5659;49.408;11.116;2023-05-17T12:39:03;8.82;;;3.60;;
11203;SDS011;5659;49.408;11.116;2023-05-17T12:41:33;5.93;;;3.25;;
11203;SDS011;5659;49.408;11.116;2023-05-17T12:43:59;12.95;;;3.40;;
11203;SDS011;5659;49.408;11.116;2023-05-17T12:46:25;8.95;;;3.78;;
11203;SDS011;5659;49.408;11.116;2023-05-17T12:48:52;7.90;;;3.22;;
11203;SDS011;5659;49.408;11.116;2023-05-17T12:51:19;7.65;;;3.90;;
11203;SDS011;5659;49.408;11.116;2023-05-17T12:53:49;6.57;;;3.20;;
11203;SDS011;5659;49.408;11.116;2023-05-17T12:56:16;7.68;;;3.50;;
11203;SDS011;5659;49.408;11.116;2023-05-17T12:58:43;9.73;;;3.75;;
11203;SDS011;5659;49.408;11.116;2023-05-17T13:01:09;9.27;;;3.70;;
11203;SDS011;5659;49.408;11.116;2023-05-17T13:03:38;8.07;;;3.50;;
11203;SDS011;5659;49.408;11.116;2023-05-17T13:06:05;12.32;;;4.30;;
11203;SDS011;5659;49.408;11.116;2023-05-17T13:08:33;7.57;;;3.67;;
11203;SDS011;5659;49.408;11.116;2023-05-17T13:11:06;11.27;;;4.65;;
11203;SDS011;5659;49.408;11.116;2023-05-17T13:13:32;9.70;;;4.00;;
11203;SDS011;5659;49.408;11.116;2023-05-17T13:15:58;9.40;;;3.95;;
11203;SDS011;5659;49.408;11.116;2023-05-17T13:18:24;7.25;;;4.10;;
11203;SDS011;5659;49.408;11.116;2023-05-17T13:20:50;9.13;;;4.10;;
11203;SDS011;5659;49.408;11.116;2023-05-17T13:23:16;10.90;;;3.70;;
11203;SDS011;5659;49.408;11.116;2023-05-17T13:25:42;7.00;;;3.88;;
11203;SDS011;5659;49.408;11.116;2023-05-17T13:28:08;9.60;;;4.00;;
11203;SDS011;5659;49.408;11.116;2023-05-17T13:30:34;9.38;;;4.07;;
11203;SDS011;5659;49.408;11.116;2023-05-17T13:33:00;11.60;;;3.78;;
11203;SDS011;5659;49.408;11.116;2023-05-17T13:35:26;6.35;;;3.67;;
11203;SDS011;5659;49.408;11.116;2023-05-17T13:37:52;8.15;;;3.60;;
11203;SDS011;5659;49.408;11.116;2023-05-17T13:40:18;12.40;;;4.05;;
11203;SDS011;5659;49.408;11.116;2023-05-17T13:42:44;10.18;;;4.03;;
11203;SDS011;5659;49.408;11.116;2023-05-17T13:45:10;9.55;;;4.10;;
11203;SDS011;5659;49.408;11.116;2023-05-17T13:47:37;11.65;;;4.03;;
11203;SDS011;5659;49.408;11.116;2023-05-17T13:50:03;8.77;;;3.70;;
11203;SDS011;5659;49.408;11.116;2023-05-17T13:52:30;7.65;;;3.55;;
11203;SDS011;5659;49.408;11.116;2023-05-17T13:54:56;6.47;;;3.45;;
11203;SDS011;5659;49.408;11.116;2023-05-17T13:57:22;10.63;;;3.90;;
11203;SDS011;5659;49.408;11.116;2023-05-17T13:59:48;8.02;;;3.30;;
11203;SDS011;5659;49.408;11.116;2023-05-17T14:02:14;7.40;;;3.58;;
11203;SDS011;5659;49.408;11.116;2023-05-17T14:04:40;8.77;;;3.33;;
11203;SDS011;5659;49.408;11.116;2023-05-17T14:07:06;7.72;;;3.67;;
11203;SDS011;5659;49.408;11.116;2023-05-17T14:09:32;7.03;;;3.67;;
11203;SDS011;5659;49.408;11.116;2023-05-17T14:11:59;6.50;;;3.67;;
11203;SDS011;5659;49.408;11.116;2023-05-17T14:14:26;8.02;;;4.20;;
11203;SDS011;5659;49.408;11.116;2023-05-17T14:16:53;7.13;;;4.10;;
11203;SDS011;5659;49.408;11.116;2023-05-17T14:19:19;9.88;;;4.20;;
11203;SDS011;5659;49.408;11.116;2023-05-17T14:21:45;6.57;;;3.90;;
11203;SDS011;5659;49.408;11.116;2023-05-17T14:24:11;10.45;;;3.97;;
11203;SDS011;5659;49.408;11.116;2023-05-17T14:26:37;10.57;;;3.70;;
11203;SDS011;5659;49.408;11.116;2023-05-17T14:29:03;6.88;;;3.72;;
11203;SDS011;5659;49.408;11.116;2023-05-17T14:31:30;8.43;;;3.95;;
11203;SDS011;5659;49.408;11.116;2023-05-17T14:33:56;8.07;;;3.72;;
11203;SDS011;5659;49.408;11.116;2023-05-17T14:36:22;7.68;;;3.53;;
11203;SDS011;5659;49.408;11.116;2023-05-17T14:38:48;11.00;;;3.67;;
11203;SDS011;5659;49.408;11.116;2023-05-17T14:41:14;7.00;;;3.42;;
11203;SDS011;5659;49.408;11.116;2023-05-17T14:43:42;7.93;;;3.83;;
11203;SDS011;5659;49.408;11.116;2023-05-17T14:46:08;7.72;;;4.03;;
11203;SDS011;5659;49.408;11.116;2023-05-17T14:49:04;7.90;;;3.53;;
11203;SDS011;5659;49.408;11.116;2023-05-17T14:51:30;7.03;;;3.72;;
11203;SDS011;5659;49.408;11.116;2023-05-17T14:53:57;9.07;;;3.63;;
11203;SDS011;5659;49.408;11.116;2023-05-17T14:56:22;5.82;;;3.60;;
11203;SDS011;5659;49.408;11.116;2023-05-17T14:58:49;9.77;;;3.58;;
11203;SDS011;5659;49.408;11.116;2023-05-17T15:01:15;7.65;;;3.30;;